sensor_id;sensor_type;location;lat;lon;timestamp;P1;durP1;ratioP1;P2;durP2;ratioP2
72785;SDS011;60902;53.876;10.674;2022-08-19T00:00:01;15.00;;;12.48;;
72785;SDS011;60902;53.876;10.674;2022-08-19T00:00:24;15.50;;;12.88;;
72785;SDS011;60902;53.876;10.674;2022-08-19T00:00:35;15.02;;;12.90;;
72785;SDS011;60902;53.876;10.674;2022-08-19T00:01:01;15.35;;;13.55;;
72785;SDS011;60902;53.876;10.674;2022-08-19T00:01:22;16.55;;;14.18;;
72785;SDS011;60902;53.876;10.674;2022-08-19T00:01:37;16.38;;;13.82;;
72785;SDS011;60902;53.876;10.674;2022-08-19T00:01:55;15.27;;;13.10;;
72785;SDS011;60902;53.876;10.674;2022-08-19T00:02:23;16.02;;;12.82;;
72785;SDS011;60902;53.876;10.674;2022-08-19T00:02:40;16.52;;;13.27;;
72785;SDS011;60902;53.876;10.674;2022-08-19T00:02:53;15.87;;;13.17;;
72785;SDS011;60902;53.876;10.674;2022-08-19T00:03:09;16.10;;;13.00;;
72785;SDS011;60902;53.876;10.674;2022-08-19T00:03:22;16.52;;;13.27;;
72785;SDS011;60902;53.876;10.674;2022-08-19T00:03:37;15.88;;;12.85;;
72785;SDS011;60902;53.876;10.674;2022-08-19T00:04:09;16.35;;;13.57;;
72785;SDS011;60902;53.876;10.674;2022-08-19T00:04:24;15.40;;;13.45;;
72785;SDS011;60902;53.876;10.674;2022-08-19T00:04:41;17.23;;;14.00;;
72785;SDS011;60902;53.876;10.674;2022-08-19T00:05:03;18.63;;;14.45;;
72785;SDS011;60902;53.876;10.674;2022-08-19T00:05:18;17.92;;;14.85;;
72785;SDS011;60902;53.876;10.674;2022-08-19T00:05:38;17.08;;;14.50;;
72785;SDS011;60902;53.876;10.674;2022-08-19T00:05:59;17.00;;;13.85;;
72785;SDS011;60902;53.876;10.674;2022-08-19T00:06:17;16.92;;;13.88;;
72785;SDS011;60902;53.876;10.674;2022-08-19T00:06:36;16.98;;;14.02;;
72785;SDS011;60902;53.876;10.674;2022-08-19T00:06:52;17.65;;;14.52;;
72785;SDS011;60902;53.876;10.674;2022-08-19T00:07:09;16.75;;;14.05;;
72785;SDS011;60902;53.876;10.674;2022-08-19T00:07:24;15.50;;;13.52;;
72785;SDS011;60902;53.876;10.674;2022-08-19T00:07:40;15.93;;;13.73;;
72785;SDS011;60902;53.876;10.674;2022-08-19T00:07:51;16.58;;;14.20;;
72785;SDS011;60902;53.876;10.674;2022-08-19T00:08:04;16.55;;;14.18;;
72785;SDS011;60902;53.876;10.674;2022-08-19T00:08:18;17.05;;;13.68;;
72785;SDS011;60902;53.876;10.674;2022-08-19T00:08:31;17.48;;;13.82;;
72785;SDS011;60902;53.876;10.674;2022-08-19T00:08:45;16.92;;;13.85;;
72785;SDS011;60902;53.876;10.674;2022-08-19T00:09:04;16.85;;;13.93;;
72785;SDS011;60902;53.876;10.674;2022-08-19T00:09:24;17.02;;;13.73;;
72785;SDS011;60902;53.876;10.674;2022-08-19T00:09:42;15.75;;;13.07;;
72785;SDS011;60902;53.876;10.674;2022-08-19T00:09:55;16.17;;;13.38;;
72785;SDS011;60902;53.876;10.674;2022-08-19T00:10:12;16.83;;;14.10;;
72785;SDS011;60902;53.876;10.674;2022-08-19T00:10:34;16.90;;;14.38;;
72785;SDS011;60902;53.876;10.674;2022-08-19T00:11:00;16.00;;;13.60;;
72785;SDS011;60902;53.876;10.674;2022-08-19T00:11:14;16.90;;;14.00;;
72785;SDS011;60902;53.876;10.674;2022-08-19T00:11:31;17.25;;;14.18;;
72785;SDS011;60902;53.876;10.674;2022-08-19T00:11:48;16.75;;;14.27;;
72785;SDS011;60902;53.876;10.674;2022-08-19T00:12:05;16.55;;;14.45;;
72785;SDS011;60902;53.876;10.674;2022-08-19T00:12:26;15.93;;;13.55;;
72785;SDS011;60902;53.876;10.674;2022-08-19T00:12:47;16.45;;;13.50;;
72785;SDS011;60902;53.876;10.674;2022-08-19T00:13:04;16.10;;;13.13;;
72785;SDS011;60902;53.876;10.674;2022-08-19T00:13:20;15.82;;;13.60;;
72785;SDS011;60902;53.876;10.674;2022-08-19T00:13:35;16.05;;;13.82;;
72785;SDS011;60902;53.876;10.674;2022-08-19T00:13:50;15.98;;;13.95;;
72785;SDS011;60902;53.876;10.674;2022-08-19T00:14:12;16.15;;;13.88;;
72785;SDS011;60902;53.876;10.674;2022-08-19T00:14:29;16.08;;;13.63;;
72785;SDS011;60902;53.876;10.674;2022-08-19T00:14:46;16.23;;;13.35;;
72785;SDS011;60902;53.876;10.674;2022-08-19T00:15:03;16.02;;;13.38;;
72785;SDS011;60902;53.876;10.674;2022-08-19T00:15:21;15.35;;;13.20;;
72785;SDS011;60902;53.876;10.674;2022-08-19T00:15:33;15.00;;;12.75;;
72785;SDS011;60902;53.876;10.674;2022-08-19T00:15:47;15.48;;;12.88;;
72785;SDS011;60902;53.876;10.674;2022-08-19T00:15:59;16.52;;;13.18;;
72785;SDS011;60902;53.876;10.674;2022-08-19T00:16:32;18.10;;;13.40;;
72785;SDS011;60902;53.876;10.674;2022-08-19T00:16:45;17.20;;;13.52;;
72785;SDS011;60902;53.876;10.674;2022-08-19T00:16:57;17.38;;;14.32;;
72785;SDS011;60902;53.876;10.674;2022-08-19T00:17:12;17.83;;;14.65;;
72785;SDS011;60902;53.876;10.674;2022-08-19T00:17:29;18.23;;;14.35;;
72785;SDS011;60902;53.876;10.674;2022-08-19T00:17:43;17.77;;;14.75;;
72785;SDS011;60902;53.876;10.674;2022-08-19T00:17:56;17.42;;;14.63;;
72785;SDS011;60902;53.876;10.674;2022-08-19T00:18:10;17.83;;;14.60;;
72785;SDS011;60902;53.876;10.674;2022-08-19T00:18:23;17.75;;;14.88;;
72785;SDS011;60902;53.876;10.674;2022-08-19T00:18:37;17.92;;;15.20;;
72785;SDS011;60902;53.876;10.674;2022-08-19T00:18:54;18.67;;;14.88;;
72785;SDS011;60902;53.876;10.674;2022-08-19T00:19:08;18.02;;;14.18;;
72785;SDS011;60902;53.876;10.674;2022-08-19T00:19:30;18.45;;;15.07;;
72785;SDS011;60902;53.876;10.674;2022-08-19T00:19:45;19.10;;;15.10;;
72785;SDS011;60902;53.876;10.674;2022-08-19T00:20:02;18.63;;;14.70;;
72785;SDS011;60902;53.876;10.674;2022-08-19T00:20:15;17.83;;;14.50;;
72785;SDS011;60902;53.876;10.674;2022-08-19T00:20:37;17.13;;;14.80;;
72785;SDS011;60902;53.876;10.674;2022-08-19T00:20:52;18.67;;;15.10;;
72785;SDS011;60902;53.876;10.674;2022-08-19T00:21:07;20.95;;;15.25;;
72785;SDS011;60902;53.876;10.674;2022-08-19T00:21:19;19.90;;;15.40;;
72785;SDS011;60902;53.876;10.674;2022-08-19T00:21:33;18.10;;;15.50;;
72785;SDS011;60902;53.876;10.674;2022-08-19T00:21:52;17.35;;;15.43;;
72785;SDS011;60902;53.876;10.674;2022-08-19T00:22:31;17.52;;;14.73;;
72785;SDS011;60902;53.876;10.674;2022-08-19T00:22:43;17.52;;;14.52;;
72785;SDS011;60902;53.876;10.674;2022-08-19T00:23:09;17.10;;;14.90;;
72785;SDS011;60902;53.876;10.674;2022-08-19T00:23:28;18.80;;;15.65;;
72785;SDS011;60902;53.876;10.674;2022-08-19T00:23:40;19.67;;;15.73;;
72785;SDS011;60902;53.876;10.674;2022-08-19T00:23:54;19.70;;;15.70;;
72785;SDS011;60902;53.876;10.674;2022-08-19T00:24:14;18.13;;;15.32;;
72785;SDS011;60902;53.876;10.674;2022-08-19T00:24:31;17.65;;;14.65;;
72785;SDS011;60902;53.876;10.674;2022-08-19T00:24:43;18.35;;;14.60;;
72785;SDS011;60902;53.876;10.674;2022-08-19T00:24:57;18.80;;;14.88;;
72785;SDS011;60902;53.876;10.674;2022-08-19T00:25:11;20.17;;;15.63;;
72785;SDS011;60902;53.876;10.674;2022-08-19T00:25:27;19.67;;;14.98;;
72785;SDS011;60902;53.876;10.674;2022-08-19T00:25:43;17.85;;;14.25;;
72785;SDS011;60902;53.876;10.674;2022-08-19T00:25:58;18.77;;;14.60;;
72785;SDS011;60902;53.876;10.674;2022-08-19T00:26:14;17.85;;;14.57;;
72785;SDS011;60902;53.876;10.674;2022-08-19T00:26:37;17.27;;;14.63;;
72785;SDS011;60902;53.876;10.674;2022-08-19T00:26:48;16.65;;;14.27;;
72785;SDS011;60902;53.876;10.674;2022-08-19T00:27:09;19.17;;;14.93;;
72785;SDS011;60902;53.876;10.674;2022-08-19T00:27:25;19.92;;;14.82;;
72785;SDS011;60902;53.876;10.674;2022-08-19T00:27:46;16.08;;;13.95;;
72785;SDS011;60902;53.876;10.674;2022-08-19T00:27:59;16.75;;;14.07;;
72785;SDS011;60902;53.876;10.674;2022-08-19T00:28:12;16.65;;;14.30;;
72785;SDS011;60902;53.876;10.674;2022-08-19T00:28:26;17.05;;;14.50;;
72785;SDS011;60902;53.876;10.674;2022-08-19T00:28:39;17.10;;;14.70;;
72785;SDS011;60902;53.876;10.674;2022-08-19T00:28:53;17.05;;;14.75;;
72785;SDS011;60902;53.876;10.674;2022-08-19T00:29:10;17.63;;;14.75;;
72785;SDS011;60902;53.876;10.674;2022-08-19T00:29:31;19.30;;;15.35;;
72785;SDS011;60902;53.876;10.674;2022-08-19T00:29:47;19.90;;;15.35;;
72785;SDS011;60902;53.876;10.674;2022-08-19T00:30:12;17.52;;;14.57;;
72785;SDS011;60902;53.876;10.674;2022-08-19T00:30:23;17.30;;;14.57;;
72785;SDS011;60902;53.876;10.674;2022-08-19T00:30:41;18.67;;;15.07;;
72785;SDS011;60902;53.876;10.674;2022-08-19T00:31:00;18.80;;;15.00;;
72785;SDS011;60902;53.876;10.674;2022-08-19T00:31:18;17.67;;;15.00;;
72785;SDS011;60902;53.876;10.674;2022-08-19T00:31:29;17.33;;;14.82;;
72785;SDS011;60902;53.876;10.674;2022-08-19T00:31:43;17.13;;;14.55;;
72785;SDS011;60902;53.876;10.674;2022-08-19T00:31:59;16.98;;;14.75;;
72785;SDS011;60902;53.876;10.674;2022-08-19T00:32:19;16.98;;;14.73;;
72785;SDS011;60902;53.876;10.674;2022-08-19T00:32:38;18.50;;;15.27;;
72785;SDS011;60902;53.876;10.674;2022-08-19T00:32:53;18.65;;;15.05;;
72785;SDS011;60902;53.876;10.674;2022-08-19T00:33:11;18.58;;;15.00;;
72785;SDS011;60902;53.876;10.674;2022-08-19T00:33:31;19.02;;;14.88;;
72785;SDS011;60902;53.876;10.674;2022-08-19T00:33:47;19.20;;;14.52;;
72785;SDS011;60902;53.876;10.674;2022-08-19T00:34:05;18.08;;;14.50;;
72785;SDS011;60902;53.876;10.674;2022-08-19T00:34:21;18.52;;;14.95;;
72785;SDS011;60902;53.876;10.674;2022-08-19T00:34:38;18.17;;;15.40;;
72785;SDS011;60902;53.876;10.674;2022-08-19T00:34:52;17.77;;;15.05;;
72785;SDS011;60902;53.876;10.674;2022-08-19T00:35:10;19.10;;;15.20;;
72785;SDS011;60902;53.876;10.674;2022-08-19T00:35:37;17.40;;;14.80;;
72785;SDS011;60902;53.876;10.674;2022-08-19T00:35:54;19.42;;;14.73;;
72785;SDS011;60902;53.876;10.674;2022-08-19T00:36:13;17.98;;;14.52;;
72785;SDS011;60902;53.876;10.674;2022-08-19T00:36:28;17.30;;;14.47;;
72785;SDS011;60902;53.876;10.674;2022-08-19T00:36:45;18.80;;;15.00;;
72785;SDS011;60902;53.876;10.674;2022-08-19T00:36:58;20.27;;;15.68;;
72785;SDS011;60902;53.876;10.674;2022-08-19T00:37:17;19.48;;;15.45;;
72785;SDS011;60902;53.876;10.674;2022-08-19T00:37:37;17.98;;;14.85;;
72785;SDS011;60902;53.876;10.674;2022-08-19T00:37:53;19.30;;;15.55;;
72785;SDS011;60902;53.876;10.674;2022-08-19T00:38:13;19.58;;;15.82;;
72785;SDS011;60902;53.876;10.674;2022-08-19T00:38:38;19.02;;;15.57;;
72785;SDS011;60902;53.876;10.674;2022-08-19T00:38:53;19.23;;;15.25;;
72785;SDS011;60902;53.876;10.674;2022-08-19T00:39:19;19.13;;;15.00;;
72785;SDS011;60902;53.876;10.674;2022-08-19T00:39:33;18.63;;;14.98;;
72785;SDS011;60902;53.876;10.674;2022-08-19T00:39:56;18.70;;;15.02;;
72785;SDS011;60902;53.876;10.674;2022-08-19T00:40:13;18.67;;;15.60;;
72785;SDS011;60902;53.876;10.674;2022-08-19T00:40:30;18.35;;;15.40;;
72785;SDS011;60902;53.876;10.674;2022-08-19T00:40:46;17.60;;;14.85;;
72785;SDS011;60902;53.876;10.674;2022-08-19T00:41:02;18.02;;;14.80;;
72785;SDS011;60902;53.876;10.674;2022-08-19T00:41:30;18.58;;;15.05;;
72785;SDS011;60902;53.876;10.674;2022-08-19T00:41:45;19.23;;;15.57;;
72785;SDS011;60902;53.876;10.674;2022-08-19T00:42:05;19.67;;;15.63;;
72785;SDS011;60902;53.876;10.674;2022-08-19T00:42:22;19.40;;;15.43;;
72785;SDS011;60902;53.876;10.674;2022-08-19T00:42:38;18.73;;;15.38;;
72785;SDS011;60902;53.876;10.674;2022-08-19T00:42:53;18.55;;;15.90;;
72785;SDS011;60902;53.876;10.674;2022-08-19T00:43:11;19.92;;;15.82;;
72785;SDS011;60902;53.876;10.674;2022-08-19T00:43:26;19.58;;;15.30;;
72785;SDS011;60902;53.876;10.674;2022-08-19T00:44:05;18.98;;;15.00;;
72785;SDS011;60902;53.876;10.674;2022-08-19T00:44:19;19.15;;;15.00;;
72785;SDS011;60902;53.876;10.674;2022-08-19T00:44:57;18.15;;;14.63;;
72785;SDS011;60902;53.876;10.674;2022-08-19T00:45:37;18.15;;;14.38;;
72785;SDS011;60902;53.876;10.674;2022-08-19T00:45:52;17.73;;;14.23;;
72785;SDS011;60902;53.876;10.674;2022-08-19T00:46:09;18.60;;;14.73;;
72785;SDS011;60902;53.876;10.674;2022-08-19T00:46:26;18.23;;;14.27;;
72785;SDS011;60902;53.876;10.674;2022-08-19T00:46:41;17.60;;;14.30;;
72785;SDS011;60902;53.876;10.674;2022-08-19T00:47:00;18.77;;;15.90;;
72785;SDS011;60902;53.876;10.674;2022-08-19T00:47:13;18.75;;;15.60;;
72785;SDS011;60902;53.876;10.674;2022-08-19T00:47:34;17.75;;;15.10;;
72785;SDS011;60902;53.876;10.674;2022-08-19T00:47:55;18.67;;;15.27;;
72785;SDS011;60902;53.876;10.674;2022-08-19T00:48:16;18.05;;;14.80;;
72785;SDS011;60902;53.876;10.674;2022-08-19T00:48:33;18.30;;;14.80;;
72785;SDS011;60902;53.876;10.674;2022-08-19T00:48:50;19.20;;;16.23;;
72785;SDS011;60902;53.876;10.674;2022-08-19T00:49:11;18.67;;;15.90;;
72785;SDS011;60902;53.876;10.674;2022-08-19T00:49:26;17.95;;;14.77;;
72785;SDS011;60902;53.876;10.674;2022-08-19T00:49:41;18.85;;;15.25;;
72785;SDS011;60902;53.876;10.674;2022-08-19T00:50:09;17.45;;;15.00;;
72785;SDS011;60902;53.876;10.674;2022-08-19T00:50:24;17.15;;;14.68;;
72785;SDS011;60902;53.876;10.674;2022-08-19T00:50:38;17.50;;;14.15;;
72785;SDS011;60902;53.876;10.674;2022-08-19T00:51:14;18.42;;;14.48;;
72785;SDS011;60902;53.876;10.674;2022-08-19T00:51:36;17.73;;;14.70;;
72785;SDS011;60902;53.876;10.674;2022-08-19T00:51:55;18.13;;;14.88;;
72785;SDS011;60902;53.876;10.674;2022-08-19T00:52:17;17.23;;;14.77;;
72785;SDS011;60902;53.876;10.674;2022-08-19T00:52:44;17.00;;;14.15;;
72785;SDS011;60902;53.876;10.674;2022-08-19T00:53:03;16.90;;;14.23;;
72785;SDS011;60902;53.876;10.674;2022-08-19T00:53:31;17.27;;;14.98;;
72785;SDS011;60902;53.876;10.674;2022-08-19T00:53:53;17.88;;;14.90;;
72785;SDS011;60902;53.876;10.674;2022-08-19T00:54:11;18.75;;;15.23;;
72785;SDS011;60902;53.876;10.674;2022-08-19T00:54:33;18.70;;;14.53;;
72785;SDS011;60902;53.876;10.674;2022-08-19T00:54:58;17.48;;;14.07;;
72785;SDS011;60902;53.876;10.674;2022-08-19T00:55:36;18.50;;;14.80;;
72785;SDS011;60902;53.876;10.674;2022-08-19T00:55:51;18.00;;;14.18;;
72785;SDS011;60902;53.876;10.674;2022-08-19T00:56:11;17.58;;;14.70;;
72785;SDS011;60902;53.876;10.674;2022-08-19T00:56:27;16.48;;;14.35;;
72785;SDS011;60902;53.876;10.674;2022-08-19T00:56:41;16.25;;;13.50;;
72785;SDS011;60902;53.876;10.674;2022-08-19T00:57:01;16.60;;;13.70;;
72785;SDS011;60902;53.876;10.674;2022-08-19T00:57:34;16.48;;;13.90;;
72785;SDS011;60902;53.876;10.674;2022-08-19T00:57:58;17.27;;;13.98;;
72785;SDS011;60902;53.876;10.674;2022-08-19T00:58:20;17.25;;;14.40;;
72785;SDS011;60902;53.876;10.674;2022-08-19T00:58:37;17.23;;;14.25;;
72785;SDS011;60902;53.876;10.674;2022-08-19T00:58:55;18.05;;;14.25;;
72785;SDS011;60902;53.876;10.674;2022-08-19T00:59:11;19.48;;;14.40;;
72785;SDS011;60902;53.876;10.674;2022-08-19T00:59:37;16.98;;;14.32;;
72785;SDS011;60902;53.876;10.674;2022-08-19T00:59:52;17.05;;;14.27;;
72785;SDS011;60902;53.876;10.674;2022-08-19T01:00:13;17.60;;;14.27;;
72785;SDS011;60902;53.876;10.674;2022-08-19T01:00:36;18.73;;;14.20;;
72785;SDS011;60902;53.876;10.674;2022-08-19T01:00:54;19.75;;;14.82;;
72785;SDS011;60902;53.876;10.674;2022-08-19T01:01:13;19.65;;;15.30;;
72785;SDS011;60902;53.876;10.674;2022-08-19T01:01:32;17.92;;;14.48;;
72785;SDS011;60902;53.876;10.674;2022-08-19T01:01:52;18.70;;;14.57;;
72785;SDS011;60902;53.876;10.674;2022-08-19T01:02:16;18.42;;;14.75;;
72785;SDS011;60902;53.876;10.674;2022-08-19T01:02:33;18.75;;;14.80;;
72785;SDS011;60902;53.876;10.674;2022-08-19T01:02:46;18.42;;;14.70;;
72785;SDS011;60902;53.876;10.674;2022-08-19T01:03:02;18.08;;;14.35;;
72785;SDS011;60902;53.876;10.674;2022-08-19T01:03:19;17.45;;;14.52;;
72785;SDS011;60902;53.876;10.674;2022-08-19T01:03:40;18.25;;;14.32;;
72785;SDS011;60902;53.876;10.674;2022-08-19T01:03:52;18.73;;;14.55;;
72785;SDS011;60902;53.876;10.674;2022-08-19T01:04:07;19.08;;;15.43;;
72785;SDS011;60902;53.876;10.674;2022-08-19T01:04:34;19.35;;;14.57;;
72785;SDS011;60902;53.876;10.674;2022-08-19T01:04:49;17.50;;;14.48;;
72785;SDS011;60902;53.876;10.674;2022-08-19T01:05:03;17.48;;;14.27;;
72785;SDS011;60902;53.876;10.674;2022-08-19T01:05:17;17.35;;;14.68;;
72785;SDS011;60902;53.876;10.674;2022-08-19T01:05:33;17.60;;;14.68;;
72785;SDS011;60902;53.876;10.674;2022-08-19T01:05:53;17.83;;;15.05;;
72785;SDS011;60902;53.876;10.674;2022-08-19T01:06:18;17.80;;;14.23;;
72785;SDS011;60902;53.876;10.674;2022-08-19T01:06:45;18.48;;;14.30;;
72785;SDS011;60902;53.876;10.674;2022-08-19T01:06:58;19.20;;;14.32;;
72785;SDS011;60902;53.876;10.674;2022-08-19T01:07:19;19.35;;;14.55;;
72785;SDS011;60902;53.876;10.674;2022-08-19T01:07:32;18.17;;;14.70;;
72785;SDS011;60902;53.876;10.674;2022-08-19T01:07:49;17.05;;;14.90;;
72785;SDS011;60902;53.876;10.674;2022-08-19T01:08:04;16.77;;;14.75;;
72785;SDS011;60902;53.876;10.674;2022-08-19T01:08:22;16.95;;;14.07;;
72785;SDS011;60902;53.876;10.674;2022-08-19T01:08:39;17.23;;;14.50;;
72785;SDS011;60902;53.876;10.674;2022-08-19T01:08:51;17.60;;;14.90;;
72785;SDS011;60902;53.876;10.674;2022-08-19T01:09:03;18.40;;;14.90;;
72785;SDS011;60902;53.876;10.674;2022-08-19T01:09:17;19.20;;;14.55;;
72785;SDS011;60902;53.876;10.674;2022-08-19T01:09:29;19.00;;;13.90;;
72785;SDS011;60902;53.876;10.674;2022-08-19T01:09:46;18.98;;;14.05;;
72785;SDS011;60902;53.876;10.674;2022-08-19T01:09:58;18.25;;;14.27;;
72785;SDS011;60902;53.876;10.674;2022-08-19T01:10:11;17.70;;;13.98;;
72785;SDS011;60902;53.876;10.674;2022-08-19T01:10:33;18.35;;;14.27;;
72785;SDS011;60902;53.876;10.674;2022-08-19T01:10:54;19.48;;;14.32;;
72785;SDS011;60902;53.876;10.674;2022-08-19T01:11:08;18.73;;;14.30;;
72785;SDS011;60902;53.876;10.674;2022-08-19T01:11:30;18.48;;;14.23;;
72785;SDS011;60902;53.876;10.674;2022-08-19T01:11:54;18.30;;;14.38;;
72785;SDS011;60902;53.876;10.674;2022-08-19T01:12:12;16.98;;;14.27;;
72785;SDS011;60902;53.876;10.674;2022-08-19T01:12:27;17.45;;;14.07;;
72785;SDS011;60902;53.876;10.674;2022-08-19T01:12:45;17.83;;;14.13;;
72785;SDS011;60902;53.876;10.674;2022-08-19T01:13:02;17.33;;;13.77;;
72785;SDS011;60902;53.876;10.674;2022-08-19T01:13:15;17.88;;;14.10;;
72785;SDS011;60902;53.876;10.674;2022-08-19T01:13:32;18.40;;;14.30;;
72785;SDS011;60902;53.876;10.674;2022-08-19T01:13:54;18.27;;;14.00;;
72785;SDS011;60902;53.876;10.674;2022-08-19T01:14:10;16.98;;;13.90;;
72785;SDS011;60902;53.876;10.674;2022-08-19T01:14:25;16.80;;;13.77;;
72785;SDS011;60902;53.876;10.674;2022-08-19T01:14:47;16.98;;;13.93;;
72785;SDS011;60902;53.876;10.674;2022-08-19T01:15:04;15.65;;;13.85;;
72785;SDS011;60902;53.876;10.674;2022-08-19T01:15:21;16.65;;;14.15;;
72785;SDS011;60902;53.876;10.674;2022-08-19T01:15:41;17.92;;;14.75;;
72785;SDS011;60902;53.876;10.674;2022-08-19T01:16:03;19.45;;;15.15;;
72785;SDS011;60902;53.876;10.674;2022-08-19T01:16:39;17.90;;;14.43;;
72785;SDS011;60902;53.876;10.674;2022-08-19T01:17:09;16.83;;;13.77;;
72785;SDS011;60902;53.876;10.674;2022-08-19T01:17:34;18.13;;;14.18;;
72785;SDS011;60902;53.876;10.674;2022-08-19T01:17:51;19.80;;;14.45;;
72785;SDS011;60902;53.876;10.674;2022-08-19T01:18:21;18.73;;;14.25;;
72785;SDS011;60902;53.876;10.674;2022-08-19T01:18:47;16.17;;;13.98;;
72785;SDS011;60902;53.876;10.674;2022-08-19T01:19:15;17.35;;;14.55;;
72785;SDS011;60902;53.876;10.674;2022-08-19T01:19:55;16.63;;;13.77;;
72785;SDS011;60902;53.876;10.674;2022-08-19T01:20:18;16.65;;;14.43;;
72785;SDS011;60902;53.876;10.674;2022-08-19T01:20:39;17.80;;;14.93;;
72785;SDS011;60902;53.876;10.674;2022-08-19T01:20:54;17.42;;;14.18;;
72785;SDS011;60902;53.876;10.674;2022-08-19T01:21:35;16.38;;;13.27;;
72785;SDS011;60902;53.876;10.674;2022-08-19T01:22:08;17.35;;;13.90;;
72785;SDS011;60902;53.876;10.674;2022-08-19T01:22:29;17.27;;;13.95;;
72785;SDS011;60902;53.876;10.674;2022-08-19T01:22:43;16.80;;;14.02;;
72785;SDS011;60902;53.876;10.674;2022-08-19T01:23:00;16.92;;;13.95;;
72785;SDS011;60902;53.876;10.674;2022-08-19T01:23:25;16.67;;;13.05;;
72785;SDS011;60902;53.876;10.674;2022-08-19T01:23:54;16.48;;;13.85;;
72785;SDS011;60902;53.876;10.674;2022-08-19T01:24:21;17.23;;;13.82;;
72785;SDS011;60902;53.876;10.674;2022-08-19T01:24:46;16.42;;;13.82;;
72785;SDS011;60902;53.876;10.674;2022-08-19T01:25:10;16.95;;;13.63;;
72785;SDS011;60902;53.876;10.674;2022-08-19T01:25:29;18.60;;;14.77;;
72785;SDS011;60902;53.876;10.674;2022-08-19T01:25:50;16.83;;;13.82;;
72785;SDS011;60902;53.876;10.674;2022-08-19T01:26:10;16.38;;;13.55;;
72785;SDS011;60902;53.876;10.674;2022-08-19T01:26:28;17.70;;;14.35;;
72785;SDS011;60902;53.876;10.674;2022-08-19T01:26:45;18.35;;;14.63;;
72785;SDS011;60902;53.876;10.674;2022-08-19T01:27:07;19.77;;;14.48;;
72785;SDS011;60902;53.876;10.674;2022-08-19T01:27:22;19.58;;;14.48;;
72785;SDS011;60902;53.876;10.674;2022-08-19T01:27:40;17.90;;;14.05;;
72785;SDS011;60902;53.876;10.674;2022-08-19T01:28:15;17.55;;;14.55;;
72785;SDS011;60902;53.876;10.674;2022-08-19T01:28:36;17.25;;;14.32;;
72785;SDS011;60902;53.876;10.674;2022-08-19T01:28:57;17.98;;;14.27;;
72785;SDS011;60902;53.876;10.674;2022-08-19T01:29:13;18.77;;;14.30;;
72785;SDS011;60902;53.876;10.674;2022-08-19T01:29:29;18.52;;;14.25;;
72785;SDS011;60902;53.876;10.674;2022-08-19T01:29:53;17.33;;;14.43;;
72785;SDS011;60902;53.876;10.674;2022-08-19T01:30:14;17.35;;;14.63;;
72785;SDS011;60902;53.876;10.674;2022-08-19T01:30:34;17.67;;;13.75;;
72785;SDS011;60902;53.876;10.674;2022-08-19T01:31:20;17.50;;;13.27;;
72785;SDS011;60902;53.876;10.674;2022-08-19T01:31:40;18.52;;;13.98;;
72785;SDS011;60902;53.876;10.674;2022-08-19T01:31:57;18.23;;;13.90;;
72785;SDS011;60902;53.876;10.674;2022-08-19T01:32:22;17.20;;;13.63;;
72785;SDS011;60902;53.876;10.674;2022-08-19T01:32:42;16.45;;;14.30;;
72785;SDS011;60902;53.876;10.674;2022-08-19T01:32:56;17.92;;;14.88;;
72785;SDS011;60902;53.876;10.674;2022-08-19T01:33:15;19.38;;;15.00;;
72785;SDS011;60902;53.876;10.674;2022-08-19T01:33:32;18.05;;;13.88;;
72785;SDS011;60902;53.876;10.674;2022-08-19T01:33:57;17.27;;;13.55;;
72785;SDS011;60902;53.876;10.674;2022-08-19T01:34:14;17.30;;;13.80;;
72785;SDS011;60902;53.876;10.674;2022-08-19T01:34:39;17.10;;;13.65;;
72785;SDS011;60902;53.876;10.674;2022-08-19T01:34:57;16.90;;;13.98;;
72785;SDS011;60902;53.876;10.674;2022-08-19T01:35:12;18.38;;;14.27;;
72785;SDS011;60902;53.876;10.674;2022-08-19T01:35:31;18.98;;;14.52;;
72785;SDS011;60902;53.876;10.674;2022-08-19T01:35:44;18.38;;;14.32;;
72785;SDS011;60902;53.876;10.674;2022-08-19T01:36:04;18.55;;;14.23;;
72785;SDS011;60902;53.876;10.674;2022-08-19T01:36:24;18.42;;;14.85;;
72785;SDS011;60902;53.876;10.674;2022-08-19T01:36:48;17.70;;;14.80;;
72785;SDS011;60902;53.876;10.674;2022-08-19T01:37:05;17.98;;;14.68;;
72785;SDS011;60902;53.876;10.674;2022-08-19T01:37:30;16.30;;;13.50;;
72785;SDS011;60902;53.876;10.674;2022-08-19T01:37:52;16.20;;;13.45;;
72785;SDS011;60902;53.876;10.674;2022-08-19T01:38:07;16.42;;;14.20;;
72785;SDS011;60902;53.876;10.674;2022-08-19T01:38:24;18.10;;;14.65;;
72785;SDS011;60902;53.876;10.674;2022-08-19T01:38:54;18.48;;;14.25;;
72785;SDS011;60902;53.876;10.674;2022-08-19T01:39:10;18.52;;;14.18;;
72785;SDS011;60902;53.876;10.674;2022-08-19T01:39:27;18.15;;;14.45;;
72785;SDS011;60902;53.876;10.674;2022-08-19T01:39:43;17.80;;;14.63;;
72785;SDS011;60902;53.876;10.674;2022-08-19T01:39:59;17.13;;;14.15;;
72785;SDS011;60902;53.876;10.674;2022-08-19T01:40:16;16.63;;;13.45;;
72785;SDS011;60902;53.876;10.674;2022-08-19T01:40:37;18.08;;;13.80;;
72785;SDS011;60902;53.876;10.674;2022-08-19T01:40:53;18.70;;;13.52;;
72785;SDS011;60902;53.876;10.674;2022-08-19T01:41:05;18.92;;;13.60;;
72785;SDS011;60902;53.876;10.674;2022-08-19T01:41:21;18.45;;;13.65;;
72785;SDS011;60902;53.876;10.674;2022-08-19T01:41:33;16.98;;;13.68;;
72785;SDS011;60902;53.876;10.674;2022-08-19T01:41:51;17.07;;;13.83;;
72785;SDS011;60902;53.876;10.674;2022-08-19T01:42:06;18.38;;;13.75;;
72785;SDS011;60902;53.876;10.674;2022-08-19T01:42:24;16.98;;;12.95;;
72785;SDS011;60902;53.876;10.674;2022-08-19T01:42:44;16.52;;;13.40;;
72785;SDS011;60902;53.876;10.674;2022-08-19T01:42:59;17.55;;;14.20;;
72785;SDS011;60902;53.876;10.674;2022-08-19T01:43:13;17.48;;;13.93;;
72785;SDS011;60902;53.876;10.674;2022-08-19T01:43:37;17.38;;;13.95;;
72785;SDS011;60902;53.876;10.674;2022-08-19T01:44:14;17.48;;;13.18;;
72785;SDS011;60902;53.876;10.674;2022-08-19T01:44:31;17.33;;;13.80;;
72785;SDS011;60902;53.876;10.674;2022-08-19T01:44:49;16.05;;;13.35;;
72785;SDS011;60902;53.876;10.674;2022-08-19T01:45:21;17.50;;;13.68;;
72785;SDS011;60902;53.876;10.674;2022-08-19T01:45:45;17.20;;;13.57;;
72785;SDS011;60902;53.876;10.674;2022-08-19T01:46:01;16.85;;;13.40;;
72785;SDS011;60902;53.876;10.674;2022-08-19T01:46:17;16.70;;;13.30;;
72785;SDS011;60902;53.876;10.674;2022-08-19T01:46:41;17.40;;;13.45;;
72785;SDS011;60902;53.876;10.674;2022-08-19T01:47:08;17.42;;;13.73;;
72785;SDS011;60902;53.876;10.674;2022-08-19T01:47:30;16.20;;;13.85;;
72785;SDS011;60902;53.876;10.674;2022-08-19T01:47:51;16.95;;;13.65;;
72785;SDS011;60902;53.876;10.674;2022-08-19T01:48:12;18.27;;;13.55;;
72785;SDS011;60902;53.876;10.674;2022-08-19T01:48:30;18.98;;;13.95;;
72785;SDS011;60902;53.876;10.674;2022-08-19T01:48:49;20.63;;;15.13;;
72785;SDS011;60902;53.876;10.674;2022-08-19T01:49:10;19.17;;;14.75;;